EST,Max TemperatureF,Mean TemperatureF,Min TemperatureF,Max Dew PointF,MeanDew PointF,Min DewpointF,Max Humidity, Mean Humidity, Min Humidity, Max Sea Level PressureIn, Mean Sea Level PressureIn, Min Sea Level PressureIn, Max VisibilityMiles, Mean VisibilityMiles, Min VisibilityMiles, Max Wind SpeedMPH, Mean Wind SpeedMPH, Max Gust SpeedMPH,PrecipitationIn, CloudCover, Events, WindDirDegrees
2013-2-1,60,48,37,30,24,12,61,41,18,30.36,30.25,30.19,10,7,5,23,10,31,0.00,0,,282
2013-2-2,59,46,32,37,30,19,81,60,29,30.38,30.27,30.12,10,8,5,8,4,,0.00,0,,334
2013-2-3,62,53,44,37,30,28,76,44,27,30.12,30.04,29.96,10,10,7,22,10,29,0.00,1,,264
2013-2-4,55,45,35,37,32,27,87,61,35,30.15,30.09,30.06,10,10,10,6,2,,0.00,0,,339
2013-2-5,69,54,39,46,43,37,100,73,38,30.09,30.03,29.98,10,9,5,13,2,21,0.00,0,,217
2013-2-6,73,62,50,54,50,46,100,74,41,30.17,30.11,30.04,10,8,4,8,4,,0.00,2,,239
2013-2-7,64,58,51,61,55,50,100,93,82,30.16,30.00,29.73,10,6,1,17,6,26,0.00,7,Rain,58
2013-2-8,66,57,48,54,47,45,100,73,49,30.07,29.93,29.76,10,8,5,16,10,21,0.00,4,,287
2013-2-9,62,52,42,46,36,25,100,62,24,30.34,30.24,30.08,10,8,5,12,7,16,0.00,0,,16
2013-2-10,68,55,42,54,47,41,100,76,52,30.38,30.30,30.18,10,9,1,12,5,16,0.00,2,,77
2013-2-11,64,62,60,63,59,54,94,89,72,30.21,30.14,30.07,10,7,2,10,4,,0.00,7,Rain,207
2013-2-12,59,56,53,59,55,50,100,94,72,30.13,30.02,29.87,10,6,2,14,3,,0.00,8,Rain-Thunderstorm,19
2013-2-13,77,65,51,64,52,41,100,75,33,29.90,29.80,29.71,10,7,2,23,7,32,0.00,6,Rain-Thunderstorm,261
2013-2-14,53,48,42,45,41,37,100,75,58,30.09,30.02,29.90,10,7,5,13,6,17,0.00,0,,318
2013-2-15,60,50,39,45,41,36,100,77,39,30.11,30.05,29.98,10,7,4,8,4,,0.00,0,,330
2013-2-16,51,45,37,46,35,14,100,72,31,30.08,29.93,29.88,10,7,5,23,7,36,0.00,2,Rain,276
2013-2-17,50,41,32,27,15,5,80,42,17,30.34,30.22,30.08,10,10,7,20,12,28,0.00,0,,283
2013-2-18,53,42,30,34,26,18,87,59,24,30.44,30.37,30.27,10,10,7,9,2,,0.00,0,,199
2013-2-19,64,52,39,57,48,34,100,83,49,30.27,30.10,29.99,10,9,3,15,4,23,0.00,4,Rain,225
2013-2-20,57,45,33,48,32,25,94,59,31,30.18,30.12,30.08,10,10,10,10,5,,0.00,0,,260
2013-2-21,64,52,39,52,41,27,100,74,26,30.18,30.13,30.09,10,10,10,9,1,,0.00,0,,108
2013-2-22,62,56,50,61,52,45,100,88,67,30.17,30.10,30.04,10,7,1,22,9,31,0.00,7,Rain,55
2013-2-23,62,55,48,61,53,46,100,97,93,30.05,29.93,29.81,10,8,2,17,4,23,0.00,8,Rain-Thunderstorm,17
2013-2-24,69,60,50,59,49,37,100,81,31,30.00,29.95,29.79,10,8,2,16,7,22,0.00,3,,279
2013-2-25,55,50,44,54,49,43,100,95,87,30.06,30.00,29.91,10,7,4,24,7,31,0.00,6,Rain-Thunderstorm,46
2013-2-26,69,58,46,66,57,45,100,82,52,29.94,29.71,29.59,10,7,2,20,11,34,0.00,4,Rain-Thunderstorm,165
2013-2-27,60,55,50,50,39,34,77,60,44,29.93,29.86,29.74,10,9,5,18,10,23,0.00,1,,255
2013-2-28,62,54,46,39,33,28,71,47,27,29.91,29.87,29.81,10,7,3,18,12,28,0.00,0,,268